Time;durP1;ratioP1;P1;durP2;ratioP2;P2;SDS_P1;SDS_P2;PMS_P1;PMS_P2;Temp;Humidity;BMP_temperature;BMP_pressure;BME280_temperature;BME280_humidity;BME280_pressure;Samples;Min_cycle;Max_cycle;Signal;HPM_P1;HPM_P2
2023/08/23 00:00:10;;;;;;;2.98;2.75;;;22.70;69.70;;;;;;949764;146;27427;-74
2023/08/23 00:02:37;;;;;;;2.90;2.70;;;22.70;69.90;;;;;;949744;146;27431;-74
2023/08/23 00:05:03;;;;;;;4.72;3.08;;;22.70;70.00;;;;;;950421;146;27301;-74
2023/08/23 00:07:30;;;;;;;2.98;2.75;;;22.60;70.20;;;;;;949726;146;27307;-74
2023/08/23 00:09:57;;;;;;;3.35;3.00;;;22.60;70.30;;;;;;949620;146;27363;-74
2023/08/23 00:12:23;;;;;;;3.52;2.65;;;22.50;70.50;;;;;;951109;146;27363;-74
2023/08/23 00:14:50;;;;;;;3.37;3.00;;;22.50;70.70;;;;;;949346;146;27285;-74
2023/08/23 00:17:16;;;;;;;3.12;2.92;;;22.50;71.00;;;;;;950173;146;27465;-74
2023/08/23 00:19:43;;;;;;;3.08;2.80;;;22.40;71.10;;;;;;950030;146;27447;-75
2023/08/23 00:22:09;;;;;;;3.33;3.02;;;22.40;71.30;;;;;;950046;146;27338;-74
2023/08/23 00:24:36;;;;;;;3.98;2.98;;;22.40;71.40;;;;;;949467;146;27334;-74
2023/08/23 00:27:03;;;;;;;4.55;2.70;;;22.30;71.60;;;;;;949956;146;27377;-74
2023/08/23 00:29:29;;;;;;;5.70;3.52;;;22.30;71.80;;;;;;949749;146;27312;-74
2023/08/23 00:31:56;;;;;;;4.55;3.27;;;22.20;72.00;;;;;;950426;146;27424;-74
2023/08/23 00:34:22;;;;;;;2.87;2.67;;;22.20;72.10;;;;;;950010;147;27429;-75
2023/08/23 00:36:49;;;;;;;9.00;3.80;;;22.20;72.30;;;;;;949765;146;27380;-75
2023/08/23 00:39:16;;;;;;;3.77;3.05;;;22.20;72.50;;;;;;950013;146;27407;-75
2023/08/23 00:41:44;;;;;;;5.37;3.72;;;22.10;72.50;;;;;;949231;146;27311;-73
2023/08/23 00:44:09;;;;;;;3.62;3.17;;;22.20;72.80;;;;;;950708;146;27408;-74
2023/08/23 00:46:35;;;;;;;3.75;3.45;;;22.10;72.80;;;;;;949962;146;27347;-75
2023/08/23 00:49:02;;;;;;;3.95;3.27;;;22.10;73.00;;;;;;949955;146;27665;-74
2023/08/23 00:51:29;;;;;;;2.87;2.67;;;22.10;73.20;;;;;;949963;146;27303;-75
2023/08/23 00:53:55;;;;;;;4.28;2.83;;;22.10;73.30;;;;;;950398;146;27283;-74
2023/08/23 00:56:22;;;;;;;3.12;2.83;;;22.10;73.40;;;;;;950161;146;27447;-75
2023/08/23 00:58:48;;;;;;;5.65;3.12;;;22.00;73.60;;;;;;965488;145;27377;-74
2023/08/23 01:01:15;;;;;;;3.30;2.90;;;22.10;73.90;;;;;;970689;145;27243;-74
2023/08/23 01:03:42;;;;;;;3.60;3.30;;;22.00;73.90;;;;;;969549;145;27323;-74
2023/08/23 01:06:08;;;;;;;3.40;3.20;;;22.00;74.20;;;;;;970427;145;27446;-73
2023/08/23 01:08:35;;;;;;;4.17;2.77;;;22.00;74.40;;;;;;969509;145;27461;-75
2023/08/23 01:11:04;;;;;;;3.20;3.00;;;22.00;74.50;;;;;;969973;145;27242;-74
2023/08/23 01:13:34;;;;;;;5.97;3.30;;;21.90;74.70;;;;;;969286;145;27362;-73
2023/08/23 01:16:01;;;;;;;4.17;3.35;;;21.90;75.00;;;;;;969525;145;27269;-74
2023/08/23 01:18:27;;;;;;;3.52;3.17;;;21.90;75.10;;;;;;970760;145;27341;-74
2023/08/23 01:20:54;;;;;;;5.55;3.05;;;21.90;75.40;;;;;;970302;145;27330;-75
2023/08/23 01:23:20;;;;;;;3.20;3.00;;;21.80;75.70;;;;;;970252;145;27320;-75
2023/08/23 01:25:50;;;;;;;4.33;3.10;;;21.80;75.90;;;;;;970461;145;27293;-74
2023/08/23 01:28:16;;;;;;;3.98;3.05;;;21.80;76.10;;;;;;970546;145;27338;-74
2023/08/23 01:30:43;;;;;;;5.28;3.30;;;21.80;76.30;;;;;;970810;145;27325;-75
2023/08/23 01:33:21;;;;;;;5.00;3.55;;;21.70;76.70;;;;;;970679;145;27291;-74
2023/08/23 01:35:48;;;;;;;5.72;3.50;;;21.70;76.90;;;;;;969765;145;27319;-74
2023/08/23 01:38:15;;;;;;;6.20;3.47;;;21.60;77.10;;;;;;970154;145;27341;-75
2023/08/23 01:40:44;;;;;;;4.70;3.15;;;21.60;77.50;;;;;;970303;145;27377;-72
2023/08/23 01:43:08;;;;;;;3.67;3.37;;;21.60;77.90;;;;;;969909;145;27289;-71
2023/08/23 01:45:34;;;;;;;3.83;3.52;;;21.50;78.20;;;;;;970435;145;27406;-72
2023/08/23 01:48:01;;;;;;;3.60;3.30;;;21.50;78.50;;;;;;970815;145;27326;-74
2023/08/23 01:50:28;;;;;;;3.75;3.42;;;21.50;78.90;;;;;;970479;145;27337;-71
2023/08/23 01:52:54;;;;;;;4.92;3.67;;;21.50;79.40;;;;;;970522;145;27386;-73
2023/08/23 01:55:21;;;;;;;5.40;3.35;;;21.40;79.70;;;;;;970569;145;27313;-72
2023/08/23 01:57:47;;;;;;;3.12;2.92;;;21.40;81.10;;;;;;968298;145;27405;-72
2023/08/23 02:00:14;;;;;;;3.92;3.22;;;21.40;80.60;;;;;;950455;146;27489;-71
2023/08/23 02:02:41;;;;;;;3.60;3.40;;;21.40;81.10;;;;;;949927;146;27929;-72
2023/08/23 02:05:07;;;;;;;3.80;3.50;;;21.30;81.50;;;;;;949281;149;27431;-71
2023/08/23 02:07:34;;;;;;;4.08;3.37;;;21.30;82.00;;;;;;951404;146;27315;-71
2023/08/23 02:10:00;;;;;;;5.03;3.70;;;21.30;82.50;;;;;;950095;146;27450;-74
2023/08/23 02:12:27;;;;;;;5.78;3.67;;;21.30;82.90;;;;;;950794;146;27343;-72
2023/08/23 02:14:53;;;;;;;3.47;3.27;;;21.20;83.50;;;;;;948995;146;27354;-71
2023/08/23 02:17:20;;;;;;;4.42;3.35;;;21.20;84.00;;;;;;949338;146;27396;-72
2023/08/23 02:19:47;;;;;;;5.92;4.20;;;21.20;84.50;;;;;;949797;146;27338;-74
2023/08/23 02:22:13;;;;;;;4.80;4.35;;;21.10;85.10;;;;;;950450;146;27345;-71
2023/08/23 02:24:40;;;;;;;4.72;4.33;;;21.10;85.90;;;;;;949659;146;27436;-71
2023/08/23 02:27:06;;;;;;;4.58;4.00;;;21.10;86.50;;;;;;950822;146;27244;-73
2023/08/23 02:29:33;;;;;;;5.28;4.65;;;21.10;87.20;;;;;;949564;146;27661;-74
2023/08/23 02:32:00;;;;;;;4.58;4.10;;;21.10;87.90;;;;;;949664;146;27349;-71
2023/08/23 02:34:26;;;;;;;4.17;3.87;;;21.00;88.50;;;;;;949656;147;27428;-71
2023/08/23 02:36:53;;;;;;;5.10;4.10;;;21.00;89.20;;;;;;949233;146;27396;-72
2023/08/23 02:39:19;;;;;;;4.10;3.75;;;21.00;90.10;;;;;;951111;146;27400;-72
2023/08/23 02:41:46;;;;;;;5.30;4.05;;;21.00;90.30;;;;;;950313;146;27338;-74
2023/08/23 02:44:13;;;;;;;4.50;4.20;;;21.00;90.70;;;;;;949672;146;27337;-71
2023/08/23 02:46:39;;;;;;;5.20;4.22;;;20.90;91.10;;;;;;949656;146;27298;-71
2023/08/23 02:49:06;;;;;;;4.40;4.00;;;20.90;91.40;;;;;;948842;147;27311;-71
2023/08/23 02:51:32;;;;;;;5.30;3.58;;;20.90;91.80;;;;;;950129;146;27295;-73
2023/08/23 02:53:59;;;;;;;4.40;4.00;;;20.90;92.00;;;;;;949531;146;27349;-72
2023/08/23 02:56:26;;;;;;;4.83;3.85;;;20.90;92.30;;;;;;949566;146;27423;-72
2023/08/23 02:58:52;;;;;;;4.03;3.47;;;20.90;92.60;;;;;;954487;145;27492;-71
2023/08/23 03:01:19;;;;;;;4.67;3.47;;;20.90;92.80;;;;;;968965;145;27334;-72
2023/08/23 03:03:45;;;;;;;4.17;3.42;;;20.80;93.10;;;;;;970403;145;27361;-74
2023/08/23 03:06:12;;;;;;;5.80;3.52;;;20.80;93.30;;;;;;970429;145;27345;-71
2023/08/23 03:08:38;;;;;;;4.15;3.75;;;20.80;93.20;;;;;;969979;145;27483;-71
2023/08/23 03:11:05;;;;;;;5.33;4.17;;;20.70;93.20;;;;;;970622;145;27401;-72
2023/08/23 03:13:32;;;;;;;3.58;3.27;;;20.70;93.20;;;;;;970393;145;27390;-74
2023/08/23 03:15:58;;;;;;;4.37;3.98;;;20.70;93.20;;;;;;970831;145;27359;-72
2023/08/23 03:18:25;;;;;;;5.45;3.25;;;20.60;93.40;;;;;;970555;145;28768;-74
2023/08/23 03:20:51;;;;;;;4.72;4.33;;;20.50;93.80;;;;;;970830;145;27882;-72
2023/08/23 03:23:18;;;;;;;4.33;3.95;;;20.50;94.00;;;;;;970138;145;27398;-72
2023/08/23 03:25:45;;;;;;;4.08;3.77;;;20.40;94.30;;;;;;969951;145;27424;-73
2023/08/23 03:28:11;;;;;;;4.00;3.60;;;20.40;94.50;;;;;;969681;145;27756;-71
2023/08/23 03:30:38;;;;;;;4.17;3.75;;;20.30;94.70;;;;;;970554;145;27258;-71
2023/08/23 03:33:05;;;;;;;4.00;3.60;;;20.20;95.10;;;;;;970551;145;27387;-73
2023/08/23 03:35:31;;;;;;;5.35;3.58;;;20.20;95.40;;;;;;969727;145;27402;-74
2023/08/23 03:37:58;;;;;;;4.12;3.60;;;20.10;95.60;;;;;;971422;145;27438;-71
2023/08/23 03:40:24;;;;;;;3.58;3.35;;;20.10;96.00;;;;;;969729;145;27266;-71
2023/08/23 03:42:51;;;;;;;3.85;3.37;;;20.00;96.30;;;;;;970460;145;27388;-71
2023/08/23 03:45:20;;;;;;;5.75;3.52;;;20.00;96.60;;;;;;970807;145;27280;-74
2023/08/23 03:47:44;;;;;;;5.67;3.90;;;19.90;96.90;;;;;;968627;145;27355;-71
2023/08/23 03:50:10;;;;;;;4.50;3.52;;;19.90;97.30;;;;;;970587;145;27329;-71
2023/08/23 03:52:37;;;;;;;4.47;3.83;;;19.80;97.50;;;;;;970709;145;27320;-71
2023/08/23 03:55:04;;;;;;;4.25;3.85;;;19.80;98.00;;;;;;970918;145;27310;-73
2023/08/23 03:57:30;;;;;;;4.42;4.10;;;19.80;98.30;;;;;;970091;145;27426;-71
2023/08/23 03:59:57;;;;;;;5.03;4.22;;;19.70;98.80;;;;;;962637;145;27615;-72
2023/08/23 04:02:24;;;;;;;4.12;3.75;;;19.70;99.30;;;;;;950574;146;27248;-73
2023/08/23 04:04:50;;;;;;;6.12;4.55;;;19.70;99.70;;;;;;909487;152;27397;-71
2023/08/23 04:07:17;;;;;;;5.30;4.78;;;19.70;99.90;;;;;;950321;146;27347;-74
2023/08/23 04:09:43;;;;;;;4.67;4.25;;;19.70;99.90;;;;;;950252;146;27387;-73
2023/08/23 04:12:10;;;;;;;4.33;4.00;;;19.70;99.90;;;;;;950121;146;27322;-72
2023/08/23 04:14:36;;;;;;;4.10;3.67;;;19.70;99.90;;;;;;949236;146;27288;-73
2023/08/23 04:17:03;;;;;;;4.67;4.10;;;19.70;99.90;;;;;;949804;146;27340;-72
2023/08/23 04:19:30;;;;;;;4.95;3.85;;;19.60;99.90;;;;;;949767;146;27424;-71
2023/08/23 04:21:56;;;;;;;5.37;4.12;;;19.60;99.90;;;;;;949169;146;27423;-71
2023/08/23 04:24:23;;;;;;;5.62;4.03;;;19.60;99.90;;;;;;951010;146;27254;-72
2023/08/23 04:26:49;;;;;;;4.20;3.87;;;19.60;99.90;;;;;;949094;146;27315;-71
2023/08/23 04:29:16;;;;;;;4.05;3.75;;;19.50;99.90;;;;;;950222;146;27415;-73
2023/08/23 04:31:42;;;;;;;7.08;4.75;;;19.60;99.90;;;;;;950246;146;27432;-71
2023/08/23 04:34:09;;;;;;;4.12;3.83;;;19.50;99.90;;;;;;949750;149;27423;-70
2023/08/23 04:36:36;;;;;;;4.90;4.40;;;19.50;99.90;;;;;;949199;146;27260;-72
2023/08/23 04:39:02;;;;;;;5.08;4.12;;;19.40;99.90;;;;;;950537;146;27388;-74
2023/08/23 04:41:29;;;;;;;4.58;4.17;;;19.40;99.90;;;;;;950137;146;27351;-70
2023/08/23 04:43:55;;;;;;;4.92;4.42;;;19.40;99.90;;;;;;949787;146;27319;-70
2023/08/23 04:46:22;;;;;;;4.65;4.22;;;19.50;99.90;;;;;;950202;146;27391;-72
2023/08/23 04:48:49;;;;;;;4.58;4.17;;;19.40;99.90;;;;;;948683;146;27313;-71
2023/08/23 04:51:15;;;;;;;6.35;4.67;;;19.40;99.90;;;;;;949816;146;27443;-74
2023/08/23 04:53:42;;;;;;;4.70;4.17;;;19.40;99.90;;;;;;950028;146;27342;-70
2023/08/23 04:56:08;;;;;;;4.80;4.37;;;19.50;99.90;;;;;;949448;146;27318;-71
2023/08/23 04:58:35;;;;;;;5.12;4.62;;;19.50;99.90;;;;;;950434;146;27299;-72
2023/08/23 05:01:03;;;;;;;5.90;5.40;;;19.60;99.90;;;;;;962504;145;27435;-74
2023/08/23 05:03:29;;;;;;;6.17;5.67;;;19.70;99.90;;;;;;969444;145;27341;-72
2023/08/23 05:05:55;;;;;;;5.87;5.28;;;19.80;99.90;;;;;;970204;145;27735;-72
2023/08/23 05:08:21;;;;;;;6.17;5.00;;;19.90;99.90;;;;;;970609;145;27390;-71
2023/08/23 05:10:51;;;;;;;9.90;4.15;;;20.10;99.90;;;;;;970461;145;27336;-74
2023/08/23 05:13:17;;;;;;;4.05;3.75;;;20.40;99.90;;;;;;970497;145;27349;-74
2023/08/23 05:15:44;;;;;;;4.25;3.83;;;20.70;99.90;;;;;;970410;145;28150;-75
2023/08/23 05:18:12;;;;;;;4.75;4.20;;;21.10;99.90;;;;;;970422;145;27300;-74
2023/08/23 05:20:37;;;;;;;6.00;4.80;;;21.50;99.90;;;;;;970207;145;27305;-74
2023/08/23 05:23:04;;;;;;;5.20;4.28;;;21.90;99.90;;;;;;970130;145;27316;-73
2023/08/23 05:25:30;;;;;;;4.65;3.65;;;22.40;99.90;;;;;;971023;145;27345;-75
2023/08/23 05:27:57;;;;;;;4.67;4.20;;;22.80;99.90;;;;;;970345;145;27339;-75
2023/08/23 05:30:23;;;;;;;3.45;3.15;;;23.40;99.90;;;;;;969931;145;27321;-74
2023/08/23 05:32:50;;;;;;;3.77;3.40;;;23.90;99.90;;;;;;970885;145;27304;-74
2023/08/23 05:35:17;;;;;;;3.75;3.42;;;24.40;99.90;;;;;;970140;145;27331;-74
2023/08/23 05:37:43;;;;;;;5.30;3.80;;;25.00;99.90;;;;;;970459;145;27349;-75
2023/08/23 05:40:10;;;;;;;3.37;3.10;;;25.60;99.80;;;;;;970218;145;27777;-76
2023/08/23 05:42:36;;;;;;;4.05;3.50;;;26.20;98.20;;;;;;970433;145;27340;-75
2023/08/23 05:45:03;;;;;;;4.92;3.45;;;26.80;96.20;;;;;;970756;145;27322;-74
2023/08/23 05:47:29;;;;;;;3.87;2.70;;;27.30;94.30;;;;;;970432;145;27346;-75
2023/08/23 05:49:56;;;;;;;6.37;3.25;;;27.90;92.50;;;;;;970856;145;27404;-75
2023/08/23 05:52:23;;;;;;;3.42;3.12;;;28.40;90.50;;;;;;970632;145;27446;-74
2023/08/23 05:54:49;;;;;;;4.05;3.00;;;28.90;86.80;;;;;;970298;145;27395;-75
2023/08/23 05:57:16;;;;;;;3.70;2.92;;;29.40;83.90;;;;;;970989;145;27774;-74
2023/08/23 05:59:42;;;;;;;3.47;2.87;;;29.90;81.30;;;;;;970521;145;27343;-75
2023/08/23 06:02:09;;;;;;;3.10;2.80;;;30.40;78.80;;;;;;954842;146;26264;-75
2023/08/23 06:04:36;;;;;;;4.50;2.65;;;30.90;76.60;;;;;;949583;146;27311;-75
2023/08/23 06:07:03;;;;;;;4.30;2.80;;;31.30;75.10;;;;;;950027;146;27370;-74
2023/08/23 06:09:29;;;;;;;2.72;2.52;;;31.80;73.20;;;;;;950091;146;27360;-76
2023/08/23 06:11:55;;;;;;;2.65;2.40;;;32.20;71.50;;;;;;949783;146;27303;-76
2023/08/23 06:14:23;;;;;;;5.03;2.95;;;32.70;70.00;;;;;;949199;146;26177;-75
2023/08/23 06:16:49;;;;;;;2.75;2.30;;;33.20;68.30;;;;;;949624;146;27451;-75
2023/08/23 06:19:15;;;;;;;6.20;3.35;;;33.70;67.10;;;;;;949551;147;26216;-76
2023/08/23 06:21:42;;;;;;;3.20;2.58;;;34.10;65.30;;;;;;950088;146;27342;-76
2023/08/23 06:24:08;;;;;;;3.15;2.72;;;34.50;63.90;;;;;;949347;146;27622;-76
2023/08/23 06:26:35;;;;;;;2.58;2.30;;;34.90;62.70;;;;;;949335;146;26224;-75
2023/08/23 06:29:02;;;;;;;3.75;2.52;;;35.20;61.70;;;;;;949450;146;26303;-75
2023/08/23 06:31:28;;;;;;;3.77;2.60;;;35.60;60.80;;;;;;949511;146;26256;-75
2023/08/23 06:33:55;;;;;;;2.40;2.15;;;36.00;59.80;;;;;;949705;146;26266;-75
2023/08/23 06:36:21;;;;;;;2.50;2.30;;;36.40;59.00;;;;;;949963;146;26309;-75
2023/08/23 06:38:48;;;;;;;6.10;2.10;;;36.70;58.80;;;;;;950626;146;26227;-75
2023/08/23 06:41:14;;;;;;;2.42;2.22;;;37.10;57.30;;;;;;950352;146;26321;-75
2023/08/23 06:43:41;;;;;;;2.83;2.27;;;37.50;56.50;;;;;;949728;146;26219;-75
2023/08/23 06:46:08;;;;;;;2.33;2.12;;;37.90;55.90;;;;;;949652;146;26236;-75
2023/08/23 06:48:34;;;;;;;2.37;1.95;;;38.20;55.00;;;;;;948579;146;26286;-75
2023/08/23 06:51:04;;;;;;;3.87;2.40;;;38.50;54.30;;;;;;949409;146;26263;-75
2023/08/23 06:53:32;;;;;;;2.33;2.12;;;38.90;53.60;;;;;;949291;146;26336;-75
2023/08/23 06:55:57;;;;;;;4.28;2.58;;;39.20;52.90;;;;;;949032;146;26220;-75
2023/08/23 06:58:24;;;;;;;2.83;2.33;;;39.50;52.00;;;;;;949269;146;26246;-75
2023/08/23 07:00:50;;;;;;;2.58;2.37;;;39.80;50.70;;;;;;950372;146;26316;-75
2023/08/23 07:03:17;;;;;;;2.77;2.20;;;40.10;50.60;;;;;;969317;145;26394;-75
2023/08/23 07:05:43;;;;;;;2.98;2.15;;;40.40;50.00;;;;;;970133;145;26343;-75
2023/08/23 07:08:10;;;;;;;3.25;1.92;;;40.60;49.40;;;;;;970061;145;26274;-75
2023/08/23 07:10:37;;;;;;;3.60;2.30;;;40.90;48.90;;;;;;970414;145;26159;-75
2023/08/23 07:13:03;;;;;;;5.15;2.20;;;41.20;48.30;;;;;;969749;145;26254;-75
2023/08/23 07:15:30;;;;;;;2.35;1.98;;;41.40;47.80;;;;;;970447;145;28274;-75
2023/08/23 07:17:56;;;;;;;3.42;2.42;;;41.60;47.30;;;;;;969011;145;26242;-75
2023/08/23 07:20:23;;;;;;;1.70;1.60;;;41.90;46.70;;;;;;968458;145;26210;-75
2023/08/23 07:22:50;;;;;;;3.47;1.70;;;42.10;46.20;;;;;;968766;145;26355;-75
2023/08/23 07:25:16;;;;;;;1.82;1.70;;;42.40;45.70;;;;;;969862;145;26271;-75
2023/08/23 07:27:43;;;;;;;2.17;1.60;;;42.60;45.50;;;;;;971224;145;26583;-75
2023/08/23 07:30:10;;;;;;;2.42;2.05;;;42.80;44.80;;;;;;969965;145;26179;-75
2023/08/23 07:32:36;;;;;;;2.35;1.90;;;43.00;44.30;;;;;;969678;145;26321;-75
2023/08/23 07:35:03;;;;;;;2.35;1.82;;;43.20;43.70;;;;;;969910;145;26338;-75
2023/08/23 07:37:29;;;;;;;2.45;1.85;;;43.30;43.20;;;;;;969892;145;26385;-75
2023/08/23 07:39:56;;;;;;;2.47;1.82;;;43.40;42.70;;;;;;970334;145;26302;-75
2023/08/23 07:42:24;;;;;;;2.52;1.45;;;43.50;42.40;;;;;;971005;145;26291;-77
2023/08/23 07:44:49;;;;;;;2.00;1.80;;;43.60;42.30;;;;;;970098;145;26249;-75
2023/08/23 07:47:16;;;;;;;1.98;1.75;;;43.70;42.00;;;;;;969725;145;26369;-77
2023/08/23 07:49:42;;;;;;;2.20;1.57;;;43.90;41.70;;;;;;969909;145;26258;-77
2023/08/23 07:52:09;;;;;;;2.83;1.85;;;44.00;41.40;;;;;;969354;145;26206;-78
2023/08/23 07:54:36;;;;;;;1.98;1.60;;;44.20;41.20;;;;;;970695;145;26159;-75
2023/08/23 07:57:02;;;;;;;3.17;1.60;;;44.40;40.90;;;;;;970785;145;26351;-78
2023/08/23 07:59:29;;;;;;;2.02;1.67;;;44.70;40.40;;;;;;970246;145;26226;-77
2023/08/23 08:01:55;;;;;;;2.08;1.50;;;44.90;40.00;;;;;;967955;145;26174;-78
2023/08/23 08:04:22;;;;;;;4.90;1.70;;;45.00;39.50;;;;;;949622;146;26311;-77
2023/08/23 08:06:48;;;;;;;2.90;1.70;;;45.20;39.10;;;;;;949710;146;26259;-75
2023/08/23 08:09:15;;;;;;;5.92;1.50;;;45.30;38.90;;;;;;949338;146;26375;-79
2023/08/23 08:11:42;;;;;;;1.95;1.62;;;45.50;38.50;;;;;;950234;146;27867;-78
2023/08/23 08:14:08;;;;;;;2.65;1.40;;;45.60;38.10;;;;;;949413;146;26321;-78
2023/08/23 08:16:35;;;;;;;3.12;1.65;;;45.80;38.00;;;;;;949648;146;26234;-77
2023/08/23 08:19:01;;;;;;;1.65;1.45;;;45.90;37.60;;;;;;949788;146;26342;-75
2023/08/23 08:21:28;;;;;;;3.45;1.27;;;46.10;37.40;;;;;;948232;146;26718;-77
2023/08/23 08:23:55;;;;;;;1.67;1.52;;;46.20;36.70;;;;;;949538;146;26390;-78
2023/08/23 08:26:21;;;;;;;2.90;1.80;;;46.30;36.40;;;;;;949231;146;26235;-78
2023/08/23 08:28:48;;;;;;;1.90;1.42;;;46.30;36.40;;;;;;949147;146;26281;-75
2023/08/23 08:31:14;;;;;;;3.72;1.90;;;46.30;36.20;;;;;;949799;146;26251;-78
2023/08/23 08:33:42;;;;;;;7.67;2.15;;;46.50;36.00;;;;;;949399;146;26232;-78
2023/08/23 08:36:08;;;;;;;2.02;1.45;;;46.60;35.80;;;;;;949183;146;26230;-79
2023/08/23 08:38:34;;;;;;;2.35;1.35;;;46.70;35.60;;;;;;949398;146;26193;-76
2023/08/23 08:41:01;;;;;;;1.70;1.50;;;46.80;35.40;;;;;;948829;146;26363;-78
2023/08/23 08:43:27;;;;;;;3.33;1.40;;;47.00;35.10;;;;;;949722;146;26240;-79
2023/08/23 08:45:54;;;;;;;3.75;1.67;;;47.10;34.50;;;;;;950016;146;26787;-78
2023/08/23 08:48:21;;;;;;;1.42;1.32;;;47.30;34.50;;;;;;949852;146;26554;-78
2023/08/23 08:50:47;;;;;;;3.17;1.65;;;47.40;34.20;;;;;;949827;146;26333;-76
2023/08/23 08:53:15;;;;;;;4.05;1.77;;;47.50;33.90;;;;;;949863;146;26356;-75
2023/08/23 08:55:40;;;;;;;3.27;1.80;;;47.60;33.60;;;;;;949915;146;26293;-75
2023/08/23 08:58:07;;;;;;;3.40;1.40;;;47.70;33.30;;;;;;948949;146;26235;-75
2023/08/23 09:00:33;;;;;;;1.82;1.42;;;47.80;33.10;;;;;;949321;146;26320;-76
2023/08/23 09:03:00;;;;;;;1.60;1.40;;;47.90;32.80;;;;;;955706;145;26253;-75
2023/08/23 09:05:27;;;;;;;5.83;1.70;;;47.90;32.80;;;;;;969259;145;26307;-75
2023/08/23 09:07:53;;;;;;;2.22;1.30;;;47.90;33.40;;;;;;970211;145;26223;-75
2023/08/23 09:10:20;;;;;;;1.32;1.22;;;47.90;32.30;;;;;;969425;145;26239;-75
2023/08/23 09:12:46;;;;;;;1.67;1.00;;;47.90;32.30;;;;;;969740;145;26375;-75
2023/08/23 09:15:13;;;;;;;2.40;1.25;;;47.90;32.20;;;;;;969903;145;26253;-74
2023/08/23 09:17:40;;;;;;;2.02;1.52;;;47.90;32.00;;;;;;970096;145;26250;-74
2023/08/23 09:20:06;;;;;;;1.37;1.27;;;47.90;31.70;;;;;;970545;145;26236;-75
2023/08/23 09:22:33;;;;;;;3.47;1.47;;;47.90;31.60;;;;;;970204;145;26191;-75
2023/08/23 09:25:02;;;;;;;4.15;1.32;;;47.80;31.40;;;;;;970281;145;26343;-74
2023/08/23 09:27:28;;;;;;;2.67;1.57;;;47.70;31.40;;;;;;970330;145;26318;-74
2023/08/23 09:29:58;;;;;;;1.42;1.30;;;47.70;31.50;;;;;;970205;145;26242;-75
2023/08/23 09:32:24;;;;;;;2.17;1.30;;;47.60;31.30;;;;;;969866;145;26245;-75
2023/08/23 09:34:51;;;;;;;4.28;1.47;;;47.60;31.50;;;;;;969987;145;26299;-74
2023/08/23 09:37:17;;;;;;;1.95;1.10;;;47.60;31.00;;;;;;970843;145;26324;-75
2023/08/23 09:39:44;;;;;;;2.83;1.30;;;47.50;30.90;;;;;;970820;145;26163;-75
2023/08/23 09:42:13;;;;;;;1.77;1.17;;;47.50;30.80;;;;;;971042;145;26342;-75
2023/08/23 09:44:37;;;;;;;3.77;1.37;;;47.40;30.60;;;;;;969407;145;26254;-75
2023/08/23 09:47:04;;;;;;;2.15;1.37;;;47.30;30.50;;;;;;969814;145;26229;-74
2023/08/23 09:49:30;;;;;;;2.50;1.10;;;47.10;30.70;;;;;;969562;145;26147;-74
2023/08/23 09:51:57;;;;;;;1.40;1.30;;;46.80;30.40;;;;;;969404;145;26260;-76
2023/08/23 09:54:26;;;;;;;2.58;1.57;;;46.60;30.20;;;;;;970048;145;26351;-75
2023/08/23 09:56:53;;;;;;;1.77;1.27;;;46.40;30.40;;;;;;969265;145;26194;-75
2023/08/23 09:59:19;;;;;;;3.92;1.40;;;46.10;30.40;;;;;;970674;145;26575;-75
2023/08/23 10:01:46;;;;;;;1.70;1.20;;;45.80;30.60;;;;;;969872;145;26800;-76
2023/08/23 10:04:12;;;;;;;1.52;1.42;;;45.40;30.50;;;;;;970385;145;26294;-74
2023/08/23 10:06:39;;;;;;;2.12;1.50;;;45.00;30.50;;;;;;969586;145;26215;-73
2023/08/23 10:09:06;;;;;;;1.65;1.50;;;44.60;30.90;;;;;;970473;145;26259;-73
2023/08/23 10:11:32;;;;;;;2.90;1.52;;;44.20;31.00;;;;;;970268;145;26227;-75
2023/08/23 10:13:59;;;;;;;1.82;1.37;;;43.80;31.20;;;;;;970579;145;26253;-73
2023/08/23 10:16:25;;;;;;;3.15;1.65;;;43.50;31.50;;;;;;970217;145;26321;-74
2023/08/23 10:18:52;;;;;;;4.05;2.00;;;43.10;31.70;;;;;;970548;145;26351;-73
2023/08/23 10:21:19;;;;;;;2.17;1.67;;;42.60;31.80;;;;;;970144;145;26140;-73
2023/08/23 10:23:46;;;;;;;2.08;1.87;;;42.30;32.00;;;;;;969678;145;26227;-76
2023/08/23 10:26:18;;;;;;;2.30;1.57;;;41.90;32.20;;;;;;970176;145;26723;-73
2023/08/23 10:28:47;;;;;;;2.37;1.47;;;41.50;32.30;;;;;;968635;145;26413;-73
2023/08/23 10:31:14;;;;;;;3.72;1.72;;;41.10;32.50;;;;;;967608;145;26745;-73
2023/08/23 10:33:40;;;;;;;3.52;1.80;;;40.60;32.70;;;;;;968738;145;26266;-74
2023/08/23 10:36:07;;;;;;;4.67;2.05;;;40.10;33.10;;;;;;968168;145;26350;-73
2023/08/23 10:38:33;;;;;;;1.47;1.37;;;39.70;33.60;;;;;;970239;145;26357;-73
2023/08/23 10:41:01;;;;;;;3.67;1.67;;;39.20;33.50;;;;;;969390;145;26258;-73
2023/08/23 10:43:27;;;;;;;5.47;2.25;;;38.90;33.80;;;;;;968776;145;27330;-73
2023/08/23 10:45:56;;;;;;;5.00;1.70;;;38.50;34.10;;;;;;968208;145;26271;-75
2023/08/23 10:48:23;;;;;;;2.33;1.75;;;38.10;34.50;;;;;;963445;145;27482;-74
2023/08/23 10:50:49;;;;;;;2.33;1.70;;;37.80;34.90;;;;;;970569;145;27691;-73
2023/08/23 10:53:18;;;;;;;1.70;1.60;;;37.50;35.30;;;;;;970547;145;27315;-72
2023/08/23 10:55:45;;;;;;;2.17;1.62;;;37.20;36.00;;;;;;969041;145;27429;-72
2023/08/23 10:58:14;;;;;;;6.45;2.30;;;36.90;36.10;;;;;;970239;145;27342;-74
2023/08/23 11:00:44;;;;;;;1.92;1.70;;;36.60;36.70;;;;;;969463;145;27341;-72
2023/08/23 11:03:13;;;;;;;1.70;1.57;;;36.50;37.00;;;;;;969394;145;27330;-76
2023/08/23 11:05:39;;;;;;;1.60;1.50;;;36.30;37.10;;;;;;955446;145;27519;-72
2023/08/23 11:08:06;;;;;;;1.85;1.75;;;36.10;37.40;;;;;;949622;146;28224;-73
2023/08/23 11:10:33;;;;;;;4.35;1.77;;;36.00;37.50;;;;;;949131;146;27474;-74
2023/08/23 11:13:00;;;;;;;3.60;1.80;;;35.80;37.80;;;;;;949819;146;27361;-76
2023/08/23 11:15:26;;;;;;;2.10;1.90;;;35.70;38.30;;;;;;950226;146;27425;-76
2023/08/23 11:17:52;;;;;;;2.92;1.80;;;35.50;38.40;;;;;;949948;146;28340;-76
2023/08/23 11:20:19;;;;;;;2.30;1.80;;;35.30;38.50;;;;;;948964;146;27348;-76
2023/08/23 11:22:46;;;;;;;2.42;1.80;;;35.20;38.80;;;;;;949793;146;27307;-76
2023/08/23 11:25:12;;;;;;;3.02;1.87;;;35.00;39.00;;;;;;949722;146;27408;-76
2023/08/23 11:27:39;;;;;;;2.35;1.65;;;34.90;39.40;;;;;;949584;146;27704;-76
2023/08/23 11:30:06;;;;;;;2.50;2.10;;;34.80;39.40;;;;;;949620;146;27303;-76
2023/08/23 11:32:32;;;;;;;3.58;1.92;;;34.70;39.60;;;;;;949837;146;27416;-76
2023/08/23 11:34:59;;;;;;;2.87;2.00;;;34.60;39.80;;;;;;949674;146;27300;-76
2023/08/23 11:37:25;;;;;;;5.10;1.67;;;34.50;40.00;;;;;;950351;146;27441;-76
2023/08/23 11:39:58;;;;;;;3.22;1.75;;;34.50;40.20;;;;;;950030;146;27315;-76
2023/08/23 11:42:24;;;;;;;1.82;1.72;;;34.40;40.40;;;;;;948941;146;27341;-76
2023/08/23 11:44:54;;;;;;;4.70;2.37;;;34.40;40.10;;;;;;948772;146;27449;-76
2023/08/23 11:47:21;;;;;;;2.10;1.90;;;34.30;40.20;;;;;;949656;146;27354;-76
2023/08/23 11:49:47;;;;;;;1.80;1.70;;;34.20;40.40;;;;;;949066;146;27336;-76
2023/08/23 11:52:14;;;;;;;3.85;1.80;;;34.10;40.60;;;;;;949188;146;27260;-76
2023/08/23 11:54:40;;;;;;;2.30;1.95;;;33.90;40.40;;;;;;948501;146;27318;-76
2023/08/23 11:57:07;;;;;;;3.05;1.95;;;33.80;40.60;;;;;;949497;146;27401;-76
2023/08/23 11:59:33;;;;;;;2.15;1.70;;;33.70;40.70;;;;;;949883;146;27423;-76
2023/08/23 12:02:00;;;;;;;4.45;2.05;;;33.60;40.70;;;;;;948582;146;27296;-76
2023/08/23 12:04:27;;;;;;;3.25;1.80;;;33.50;40.90;;;;;;949623;146;27268;-76
2023/08/23 12:06:53;;;;;;;2.92;1.75;;;33.30;41.30;;;;;;970330;145;27326;-76
2023/08/23 12:09:20;;;;;;;1.90;1.80;;;33.30;41.60;;;;;;970499;145;27366;-76
2023/08/23 12:11:47;;;;;;;1.85;1.65;;;33.20;41.70;;;;;;970944;145;27784;-76
2023/08/23 12:14:13;;;;;;;3.65;1.60;;;33.20;41.80;;;;;;969886;145;27407;-76
2023/08/23 12:16:40;;;;;;;2.20;1.67;;;33.10;41.60;;;;;;970321;145;27299;-76
2023/08/23 12:19:06;;;;;;;2.58;1.80;;;33.10;41.60;;;;;;970715;145;27279;-76
2023/08/23 12:21:33;;;;;;;2.77;2.08;;;33.10;41.90;;;;;;969716;145;27411;-74
2023/08/23 12:23:59;;;;;;;1.95;1.45;;;33.10;41.90;;;;;;970554;145;27310;-74
2023/08/23 12:26:26;;;;;;;2.42;1.55;;;33.10;42.00;;;;;;970444;145;27311;-74
2023/08/23 12:28:53;;;;;;;2.25;2.00;;;33.00;42.10;;;;;;971314;145;27911;-75
2023/08/23 12:31:19;;;;;;;1.67;1.45;;;33.10;41.80;;;;;;970260;145;27327;-74
2023/08/23 12:33:46;;;;;;;2.12;1.75;;;33.10;41.50;;;;;;969582;145;27338;-74
2023/08/23 12:36:15;;;;;;;1.50;1.40;;;33.10;41.20;;;;;;970577;145;27271;-75
2023/08/23 12:38:42;;;;;;;2.40;1.55;;;33.00;41.10;;;;;;970462;145;27483;-74
2023/08/23 12:41:08;;;;;;;2.20;1.42;;;33.00;41.40;;;;;;969995;145;27338;-75
2023/08/23 12:43:35;;;;;;;1.65;1.55;;;32.90;41.20;;;;;;970562;145;27334;-74